RYR50XZ LFMU-EGGW
Flight info
| Callsign | RYR50XZ |
|---|---|
| Flight time | 1h 49m |
| Altitude | 36000 |
| Route | FJR DCT NG DCT MOLEN DCT MTL DCT ETREK DCT MADOT DCT MOPEM DCT CACHI DCT AVLON DCT OKRIX DCT BRY DCT CLM DCT KOPOR DCT PIREG DCT SOSUN DCT SUBIP UM733 UNDUG |
| Aircraft | B738/M-SDE2E3FGHIRWXY/LB1 |
Departure
| Time | 2026-04-30 09:58 |
|---|---|
| Airport | Béziers Vias airport (LFMU) |
Arrival
| Time | 2026-04-30 11:47 |
|---|---|
| Airport | London Luton Airport (EGGW) |
| Time | Latitude | Longitude | Altitude | Speed | Heading |
|---|---|---|---|---|---|
| 2026-04-30 09:44 | 43.32139 | 3.35343 | 57 ft | 0 kts | 180° |
| 2026-04-30 09:53 | 43.32138 | 3.35342 | 57 ft | 1 kts | 181° |
| 2026-04-30 09:53 | 43.32126 | 3.35326 | 56 ft | 4 kts | 257° |
| 2026-04-30 09:53 | 43.32147 | 3.35276 | 57 ft | 8 kts | 304° |
| 2026-04-30 09:54 | 43.32174 | 3.35215 | 52 ft | 7 kts | 297° |
| 2026-04-30 09:54 | 43.32213 | 3.35175 | 54 ft | 8 kts | 354° |
| 2026-04-30 09:54 | 43.32274 | 3.35179 | 57 ft | 10 kts | 4° |
| 2026-04-30 09:54 | 43.32346 | 3.35172 | 56 ft | 11 kts | 329° |
| 2026-04-30 09:55 | 43.32360 | 3.35074 | 56 ft | 11 kts | 274° |
| 2026-04-30 09:55 | 43.32365 | 3.34972 | 57 ft | 11 kts | 274° |
| 2026-04-30 09:55 | 43.32371 | 3.34873 | 57 ft | 10 kts | 274° |
| 2026-04-30 09:55 | 43.32377 | 3.34769 | 58 ft | 12 kts | 276° |
| 2026-04-30 09:56 | 43.32383 | 3.34653 | 54 ft | 13 kts | 273° |
| 2026-04-30 09:56 | 43.32389 | 3.34534 | 57 ft | 12 kts | 275° |
| 2026-04-30 09:56 | 43.32395 | 3.34406 | 56 ft | 15 kts | 274° |
| 2026-04-30 09:56 | 43.32394 | 3.34253 | 57 ft | 17 kts | 246° |
| 2026-04-30 09:57 | 43.32405 | 3.34205 | 55 ft | 3 kts | 50° |
| 2026-04-30 09:57 | 43.32404 | 3.34241 | 60 ft | 5 kts | 91° |
| 2026-04-30 09:57 | 43.32395 | 3.34429 | 57 ft | 52 kts | 95° |
| 2026-04-30 09:57 | 43.32348 | 3.35295 | 57 ft | 126 kts | 94° |
| 2026-04-30 09:58 | 43.32278 | 3.36724 | 355 ft | 163 kts | 93° |
| 2026-04-30 09:58 | 43.32180 | 3.38265 | 1292 ft | 158 kts | 98° |
| 2026-04-30 09:58 | 43.32382 | 3.39835 | 1967 ft | 189 kts | 62° |
| 2026-04-30 09:58 | 43.33292 | 3.41333 | 2360 ft | 218 kts | 56° |
| 2026-04-30 09:59 | 43.35395 | 3.44760 | 3381 ft | 253 kts | 57° |
| 2026-04-30 09:59 | 43.37731 | 3.48608 | 5092 ft | 270 kts | 55° |
| 2026-04-30 10:00 | 43.40176 | 3.52686 | 6869 ft | 281 kts | 53° |
| 2026-04-30 10:00 | 43.41429 | 3.54792 | 7691 ft | 288 kts | 53° |
| 2026-04-30 10:01 | 43.43999 | 3.59157 | 9391 ft | 299 kts | 55° |
| 2026-04-30 10:01 | 43.45076 | 3.61632 | 10216 ft | 304 kts | 64° |
| 2026-04-30 10:01 | 43.46027 | 3.64306 | 10723 ft | 323 kts | 66° |
| 2026-04-30 10:02 | 43.48062 | 3.70232 | 11744 ft | 351 kts | 65° |
| 2026-04-30 10:02 | 43.49124 | 3.73266 | 12618 ft | 353 kts | 65° |
| 2026-04-30 10:02 | 43.50191 | 3.76271 | 13502 ft | 355 kts | 65° |
| 2026-04-30 10:02 | 43.51290 | 3.79345 | 14290 ft | 359 kts | 65° |
| 2026-04-30 10:03 | 43.52403 | 3.82446 | 15021 ft | 363 kts | 64° |
| 2026-04-30 10:03 | 43.53530 | 3.85584 | 15744 ft | 367 kts | 64° |
| 2026-04-30 10:03 | 43.54668 | 3.88752 | 16471 ft | 371 kts | 64° |
| 2026-04-30 10:03 | 43.55821 | 3.91966 | 17186 ft | 375 kts | 64° |
| 2026-04-30 10:04 | 43.56982 | 3.95209 | 17891 ft | 380 kts | 64° |
| 2026-04-30 10:04 | 43.58275 | 3.98423 | 18520 ft | 387 kts | 53° |
| 2026-04-30 10:04 | 43.60022 | 4.01262 | 19181 ft | 389 kts | 48° |
| 2026-04-30 10:04 | 43.61866 | 4.04011 | 19805 ft | 392 kts | 47° |
| 2026-04-30 10:05 | 43.63736 | 4.06776 | 20395 ft | 397 kts | 47° |
| 2026-04-30 10:05 | 43.65621 | 4.09591 | 20968 ft | 401 kts | 47° |
| 2026-04-30 10:05 | 43.67509 | 4.12447 | 21560 ft | 405 kts | 48° |
| 2026-04-30 10:05 | 43.69407 | 4.15350 | 22125 ft | 409 kts | 48° |
| 2026-04-30 10:06 | 43.71316 | 4.18288 | 22689 ft | 413 kts | 48° |
| 2026-04-30 10:06 | 43.73238 | 4.21259 | 23310 ft | 414 kts | 48° |
| 2026-04-30 10:06 | 43.75159 | 4.24233 | 23924 ft | 416 kts | 48° |
| 2026-04-30 10:06 | 43.77090 | 4.27226 | 24430 ft | 418 kts | 47° |
| 2026-04-30 10:07 | 43.79034 | 4.30239 | 24887 ft | 421 kts | 47° |
| 2026-04-30 10:07 | 43.80991 | 4.33276 | 25331 ft | 425 kts | 47° |
| 2026-04-30 10:07 | 43.82963 | 4.36337 | 25772 ft | 428 kts | 47° |
| 2026-04-30 10:07 | 43.85113 | 4.39199 | 26197 ft | 430 kts | 37° |
| 2026-04-30 10:08 | 43.87593 | 4.41531 | 26619 ft | 432 kts | 28° |
| 2026-04-30 10:08 | 43.90326 | 4.43285 | 27033 ft | 434 kts | 20° |
| 2026-04-30 10:08 | 43.93158 | 4.44769 | 27466 ft | 437 kts | 19° |
| 2026-04-30 10:08 | 43.96021 | 4.46235 | 27853 ft | 440 kts | 19° |
| 2026-04-30 10:09 | 43.98906 | 4.47738 | 28240 ft | 444 kts | 19° |
| 2026-04-30 10:09 | 44.01797 | 4.49282 | 28633 ft | 447 kts | 20° |
| 2026-04-30 10:09 | 44.04699 | 4.50854 | 29042 ft | 449 kts | 20° |
| 2026-04-30 10:09 | 44.07625 | 4.52437 | 29414 ft | 452 kts | 19° |
| 2026-04-30 10:10 | 44.10571 | 4.54006 | 29770 ft | 455 kts | 19° |
| 2026-04-30 10:10 | 44.13538 | 4.55574 | 30142 ft | 458 kts | 19° |
| 2026-04-30 10:10 | 44.16521 | 4.57150 | 30528 ft | 458 kts | 19° |
| 2026-04-30 10:10 | 44.19483 | 4.58721 | 31059 ft | 454 kts | 19° |
| 2026-04-30 10:11 | 44.22425 | 4.60283 | 31607 ft | 450 kts | 19° |
| 2026-04-30 10:11 | 44.25342 | 4.61836 | 32029 ft | 449 kts | 19° |
| 2026-04-30 10:11 | 44.28266 | 4.63393 | 32382 ft | 450 kts | 19° |
| 2026-04-30 10:11 | 44.31149 | 4.64932 | 32772 ft | 449 kts | 19° |
| 2026-04-30 10:12 | 44.34063 | 4.66490 | 33229 ft | 447 kts | 19° |
| 2026-04-30 10:12 | 44.36958 | 4.68039 | 33721 ft | 444 kts | 19° |
| 2026-04-30 10:12 | 44.39839 | 4.69583 | 34108 ft | 443 kts | 19° |
| 2026-04-30 10:12 | 44.42719 | 4.71127 | 34392 ft | 444 kts | 19° |
| 2026-04-30 10:13 | 44.45611 | 4.72678 | 34676 ft | 445 kts | 19° |
| 2026-04-30 10:13 | 44.48494 | 4.74227 | 34985 ft | 444 kts | 19° |
| 2026-04-30 10:13 | 44.51376 | 4.75770 | 35298 ft | 443 kts | 18° |
| 2026-04-30 10:13 | 44.54337 | 4.76903 | 35599 ft | 440 kts | 7° |
| 2026-04-30 10:14 | 44.57370 | 4.77319 | 35919 ft | 436 kts | 358° |
| 2026-04-30 10:14 | 44.60388 | 4.77094 | 36136 ft | 435 kts | 349° |
| 2026-04-30 10:14 | 44.66411 | 4.75742 | 36133 ft | 439 kts | 348° |
| 2026-04-30 10:15 | 44.72398 | 4.74314 | 36127 ft | 432 kts | 348° |
| 2026-04-30 10:15 | 44.78323 | 4.72959 | 36134 ft | 431 kts | 348° |
| 2026-04-30 10:16 | 44.84245 | 4.71636 | 36132 ft | 431 kts | 348° |
| 2026-04-30 10:17 | 44.93128 | 4.69659 | 36132 ft | 431 kts | 348° |
| 2026-04-30 10:17 | 45.02022 | 4.67670 | 36138 ft | 431 kts | 348° |
| 2026-04-30 10:18 | 45.07950 | 4.66341 | 36132 ft | 431 kts | 348° |
| 2026-04-30 10:19 | 45.16843 | 4.64342 | 36129 ft | 431 kts | 349° |
| 2026-04-30 10:19 | 45.22766 | 4.63000 | 36130 ft | 431 kts | 349° |
| 2026-04-30 10:20 | 45.28656 | 4.61649 | 36133 ft | 431 kts | 348° |
| 2026-04-30 10:20 | 45.37547 | 4.59605 | 36117 ft | 432 kts | 349° |
| 2026-04-30 10:21 | 45.43514 | 4.58232 | 36135 ft | 432 kts | 349° |
| 2026-04-30 10:21 | 45.49451 | 4.56862 | 36127 ft | 433 kts | 349° |
| 2026-04-30 10:22 | 45.55357 | 4.55497 | 36128 ft | 433 kts | 349° |
| 2026-04-30 10:22 | 45.61302 | 4.54119 | 36130 ft | 433 kts | 349° |
| 2026-04-30 10:23 | 45.67247 | 4.52739 | 36121 ft | 433 kts | 349° |
| 2026-04-30 10:23 | 45.73193 | 4.51356 | 36118 ft | 433 kts | 349° |
| 2026-04-30 10:24 | 45.79143 | 4.49972 | 36119 ft | 432 kts | 349° |
| 2026-04-30 10:24 | 45.85078 | 4.48590 | 36123 ft | 432 kts | 349° |
| 2026-04-30 10:25 | 45.91009 | 4.47205 | 36128 ft | 432 kts | 349° |
| 2026-04-30 10:25 | 45.96937 | 4.45818 | 36119 ft | 431 kts | 349° |
| 2026-04-30 10:26 | 46.02848 | 4.44430 | 36125 ft | 430 kts | 349° |
| 2026-04-30 10:26 | 46.08743 | 4.43044 | 36133 ft | 429 kts | 349° |
| 2026-04-30 10:27 | 46.14620 | 4.41659 | 36117 ft | 428 kts | 349° |
| 2026-04-30 10:27 | 46.20488 | 4.40275 | 36121 ft | 427 kts | 349° |
| 2026-04-30 10:28 | 46.26343 | 4.38886 | 36117 ft | 426 kts | 349° |
| 2026-04-30 10:28 | 46.31178 | 4.37567 | 36130 ft | 425 kts | 346° |
| 2026-04-30 10:29 | 46.37860 | 4.35195 | 36132 ft | 425 kts | 345° |
| 2026-04-30 10:29 | 46.43608 | 4.33111 | 36117 ft | 426 kts | 345° |
| 2026-04-30 10:30 | 46.48434 | 4.31395 | 36117 ft | 426 kts | 345° |
| 2026-04-30 10:30 | 46.54207 | 4.29362 | 36122 ft | 427 kts | 346° |
| 2026-04-30 10:31 | 46.59983 | 4.27329 | 36122 ft | 428 kts | 345° |
| 2026-04-30 10:31 | 46.65772 | 4.25285 | 36135 ft | 428 kts | 345° |
| 2026-04-30 10:32 | 46.71563 | 4.23234 | 36125 ft | 428 kts | 346° |
| 2026-04-30 10:32 | 46.77354 | 4.21182 | 36137 ft | 428 kts | 345° |
| 2026-04-30 10:33 | 46.83139 | 4.19126 | 36125 ft | 428 kts | 345° |
| 2026-04-30 10:33 | 46.88882 | 4.17079 | 36132 ft | 427 kts | 345° |
| 2026-04-30 10:34 | 46.94660 | 4.15016 | 36134 ft | 427 kts | 346° |
| 2026-04-30 10:34 | 47.00466 | 4.12937 | 36129 ft | 427 kts | 346° |
| 2026-04-30 10:35 | 47.06199 | 4.10873 | 36136 ft | 426 kts | 345° |
| 2026-04-30 10:35 | 47.11767 | 4.07928 | 36128 ft | 426 kts | 338° |
| 2026-04-30 10:36 | 47.17247 | 4.04557 | 36132 ft | 427 kts | 337° |
| 2026-04-30 10:36 | 47.22777 | 4.01194 | 36129 ft | 428 kts | 338° |
| 2026-04-30 10:37 | 47.28264 | 3.97912 | 36134 ft | 429 kts | 338° |
| 2026-04-30 10:37 | 47.33805 | 3.94610 | 36123 ft | 430 kts | 339° |
| 2026-04-30 10:38 | 47.39365 | 3.91292 | 36136 ft | 432 kts | 338° |
| 2026-04-30 10:38 | 47.44936 | 3.87953 | 36137 ft | 433 kts | 339° |
| 2026-04-30 10:39 | 47.50532 | 3.84592 | 36142 ft | 435 kts | 338° |
| 2026-04-30 10:39 | 47.56150 | 3.81211 | 36122 ft | 437 kts | 340° |
| 2026-04-30 10:40 | 47.61787 | 3.77831 | 36139 ft | 438 kts | 340° |
| 2026-04-30 10:40 | 47.67451 | 3.74434 | 36139 ft | 439 kts | 339° |
| 2026-04-30 10:41 | 47.73125 | 3.71024 | 36139 ft | 440 kts | 340° |
| 2026-04-30 10:41 | 47.78803 | 3.67595 | 36139 ft | 441 kts | 340° |
| 2026-04-30 10:42 | 47.84482 | 3.64159 | 36142 ft | 441 kts | 340° |
| 2026-04-30 10:42 | 47.90166 | 3.60715 | 36138 ft | 441 kts | 340° |
| 2026-04-30 10:43 | 47.95838 | 3.57266 | 36135 ft | 440 kts | 340° |
| 2026-04-30 10:43 | 48.01505 | 3.53801 | 36142 ft | 439 kts | 340° |
| 2026-04-30 10:44 | 48.07115 | 3.50346 | 36145 ft | 439 kts | 340° |
| 2026-04-30 10:44 | 48.12746 | 3.46869 | 36147 ft | 438 kts | 340° |
| 2026-04-30 10:45 | 48.18376 | 3.43388 | 36155 ft | 437 kts | 340° |
| 2026-04-30 10:45 | 48.23994 | 3.39905 | 36147 ft | 437 kts | 340° |
| 2026-04-30 10:46 | 48.29609 | 3.36415 | 36156 ft | 438 kts | 340° |
| 2026-04-30 10:46 | 48.35245 | 3.32904 | 36162 ft | 439 kts | 340° |
| 2026-04-30 10:47 | 48.40895 | 3.29382 | 36162 ft | 440 kts | 339° |
| 2026-04-30 10:47 | 48.46549 | 3.25798 | 36156 ft | 441 kts | 340° |
| 2026-04-30 10:48 | 48.52202 | 3.22183 | 36182 ft | 442 kts | 340° |
| 2026-04-30 10:48 | 48.57865 | 3.18556 | 36167 ft | 442 kts | 339° |
| 2026-04-30 10:49 | 48.63520 | 3.14928 | 36174 ft | 441 kts | 340° |
| 2026-04-30 10:49 | 48.69167 | 3.11299 | 36164 ft | 441 kts | 339° |
| 2026-04-30 10:50 | 48.74805 | 3.07667 | 36171 ft | 439 kts | 340° |
| 2026-04-30 10:50 | 48.80425 | 3.04038 | 36169 ft | 439 kts | 340° |
| 2026-04-30 10:51 | 48.85971 | 3.00294 | 36168 ft | 441 kts | 334° |
| 2026-04-30 10:51 | 48.91307 | 2.95677 | 36183 ft | 442 kts | 331° |
| 2026-04-30 10:52 | 48.96602 | 2.90891 | 36175 ft | 443 kts | 332° |
| 2026-04-30 10:52 | 49.01935 | 2.86137 | 36179 ft | 445 kts | 332° |
| 2026-04-30 10:53 | 49.07300 | 2.81399 | 36157 ft | 446 kts | 332° |
| 2026-04-30 10:53 | 49.12674 | 2.76657 | 36171 ft | 447 kts | 332° |
| 2026-04-30 10:54 | 49.18054 | 2.71897 | 36177 ft | 447 kts | 332° |
| 2026-04-30 10:54 | 49.23435 | 2.67122 | 36185 ft | 447 kts | 332° |
| 2026-04-30 10:55 | 49.28810 | 2.62338 | 36176 ft | 447 kts | 332° |
| 2026-04-30 10:55 | 49.34183 | 2.57545 | 36193 ft | 447 kts | 332° |
| 2026-04-30 10:56 | 49.39554 | 2.52741 | 36195 ft | 447 kts | 332° |
| 2026-04-30 10:56 | 49.44919 | 2.47930 | 36199 ft | 446 kts | 332° |
| 2026-04-30 10:57 | 49.50283 | 2.43104 | 36189 ft | 446 kts | 330° |
| 2026-04-30 10:57 | 49.55164 | 2.37183 | 36205 ft | 448 kts | 319° |
| 2026-04-30 10:58 | 49.59762 | 2.30690 | 36209 ft | 448 kts | 319° |
| 2026-04-30 10:58 | 49.64374 | 2.24209 | 36208 ft | 448 kts | 319° |
| 2026-04-30 10:59 | 49.69008 | 2.17762 | 36203 ft | 449 kts | 319° |
| 2026-04-30 10:59 | 49.73655 | 2.11305 | 36186 ft | 449 kts | 319° |
| 2026-04-30 11:00 | 49.78299 | 2.04829 | 36206 ft | 450 kts | 319° |
| 2026-04-30 11:00 | 49.82943 | 1.98336 | 36194 ft | 450 kts | 319° |
| 2026-04-30 11:01 | 49.87378 | 1.91488 | 36185 ft | 452 kts | 308° |
| 2026-04-30 11:01 | 49.90405 | 1.82981 | 36215 ft | 452 kts | 292° |
| 2026-04-30 11:02 | 49.92718 | 1.73887 | 36202 ft | 453 kts | 291° |
| 2026-04-30 11:02 | 49.95070 | 1.64814 | 36195 ft | 454 kts | 292° |
| 2026-04-30 11:03 | 49.97523 | 1.55797 | 36188 ft | 454 kts | 298° |
| 2026-04-30 11:04 | 50.03557 | 1.44652 | 36212 ft | 451 kts | 320° |
| 2026-04-30 11:04 | 50.08325 | 1.38312 | 36200 ft | 451 kts | 321° |
| 2026-04-30 11:04 | 50.10712 | 1.35129 | 36062 ft | 453 kts | 320° |
| 2026-04-30 11:05 | 50.13064 | 1.31962 | 35715 ft | 450 kts | 320° |
| 2026-04-30 11:05 | 50.15411 | 1.28773 | 35351 ft | 446 kts | 320° |
| 2026-04-30 11:05 | 50.17740 | 1.25592 | 34970 ft | 443 kts | 320° |
| 2026-04-30 11:05 | 50.20044 | 1.22433 | 34586 ft | 440 kts | 320° |
| 2026-04-30 11:06 | 50.22332 | 1.19290 | 34211 ft | 437 kts | 320° |
| 2026-04-30 11:06 | 50.24607 | 1.16160 | 33788 ft | 435 kts | 320° |
| 2026-04-30 11:06 | 50.26872 | 1.13043 | 33379 ft | 432 kts | 320° |
| 2026-04-30 11:06 | 50.29125 | 1.09937 | 32979 ft | 430 kts | 320° |
| 2026-04-30 11:07 | 50.31358 | 1.06857 | 32611 ft | 427 kts | 320° |
| 2026-04-30 11:07 | 50.33581 | 1.03785 | 32242 ft | 425 kts | 320° |
| 2026-04-30 11:07 | 50.35789 | 1.00731 | 31873 ft | 422 kts | 320° |
| 2026-04-30 11:07 | 50.37983 | 0.97691 | 31505 ft | 420 kts | 320° |
| 2026-04-30 11:08 | 50.40167 | 0.94663 | 31143 ft | 418 kts | 320° |
| 2026-04-30 11:08 | 50.42340 | 0.91647 | 30796 ft | 417 kts | 319° |
| 2026-04-30 11:08 | 50.44505 | 0.88637 | 30437 ft | 415 kts | 319° |
| 2026-04-30 11:08 | 50.46696 | 0.85658 | 29814 ft | 419 kts | 320° |
| 2026-04-30 11:09 | 50.48917 | 0.82720 | 29417 ft | 416 kts | 321° |
| 2026-04-30 11:09 | 50.51128 | 0.79798 | 29008 ft | 414 kts | 321° |
| 2026-04-30 11:09 | 50.53317 | 0.76887 | 28624 ft | 411 kts | 320° |
| 2026-04-30 11:09 | 50.55485 | 0.73992 | 28265 ft | 407 kts | 320° |
| 2026-04-30 11:10 | 50.57641 | 0.71118 | 27905 ft | 404 kts | 321° |
| 2026-04-30 11:10 | 50.59779 | 0.68270 | 27539 ft | 402 kts | 321° |
| 2026-04-30 11:10 | 50.61909 | 0.65431 | 27186 ft | 399 kts | 321° |
| 2026-04-30 11:10 | 50.64019 | 0.62613 | 26829 ft | 397 kts | 321° |
| 2026-04-30 11:11 | 50.66118 | 0.59808 | 26460 ft | 395 kts | 321° |
| 2026-04-30 11:11 | 50.68204 | 0.57014 | 26112 ft | 392 kts | 321° |
| 2026-04-30 11:11 | 50.70250 | 0.54271 | 25769 ft | 390 kts | 321° |
| 2026-04-30 11:11 | 50.72315 | 0.51500 | 25419 ft | 388 kts | 321° |
| 2026-04-30 11:12 | 50.74364 | 0.48746 | 25073 ft | 387 kts | 321° |
| 2026-04-30 11:12 | 50.76411 | 0.45993 | 24731 ft | 385 kts | 320° |
| 2026-04-30 11:12 | 50.78449 | 0.43248 | 24356 ft | 385 kts | 320° |
| 2026-04-30 11:12 | 50.80479 | 0.40509 | 24016 ft | 383 kts | 320° |
| 2026-04-30 11:13 | 50.82508 | 0.37764 | 23617 ft | 383 kts | 320° |
| 2026-04-30 11:13 | 50.84523 | 0.35036 | 23240 ft | 381 kts | 320° |
| 2026-04-30 11:13 | 50.86533 | 0.32309 | 22871 ft | 379 kts | 320° |
| 2026-04-30 11:13 | 50.88529 | 0.29600 | 22514 ft | 377 kts | 320° |
| 2026-04-30 11:14 | 50.90511 | 0.26906 | 22164 ft | 374 kts | 320° |
| 2026-04-30 11:14 | 50.92481 | 0.24225 | 21813 ft | 372 kts | 320° |
| 2026-04-30 11:14 | 50.94436 | 0.21562 | 21484 ft | 370 kts | 320° |
| 2026-04-30 11:14 | 50.96383 | 0.18907 | 21149 ft | 368 kts | 320° |
| 2026-04-30 11:15 | 50.98314 | 0.16272 | 20819 ft | 366 kts | 319° |
| 2026-04-30 11:15 | 51.00239 | 0.13642 | 20491 ft | 364 kts | 319° |
| 2026-04-30 11:15 | 51.02157 | 0.11056 | 20291 ft | 361 kts | 322° |
| 2026-04-30 11:15 | 51.04183 | 0.08678 | 20258 ft | 360 kts | 326° |
| 2026-04-30 11:16 | 51.06216 | 0.06455 | 20244 ft | 349 kts | 326° |
| 2026-04-30 11:16 | 51.08195 | 0.04326 | 20238 ft | 337 kts | 327° |
| 2026-04-30 11:16 | 51.10101 | 0.02269 | 20233 ft | 325 kts | 326° |
| 2026-04-30 11:16 | 51.11931 | 0.00276 | 20221 ft | 313 kts | 326° |
| 2026-04-30 11:17 | 51.13696 | -0.01659 | 20115 ft | 305 kts | 326° |
| 2026-04-30 11:17 | 51.14861 | -0.02941 | 19744 ft | 312 kts | 325° |
| 2026-04-30 11:17 | 51.16717 | -0.04991 | 18833 ft | 338 kts | 325° |
| 2026-04-30 11:17 | 51.18622 | -0.07102 | 18848 ft | 332 kts | 325° |
| 2026-04-30 11:18 | 51.20569 | -0.09267 | 18708 ft | 349 kts | 324° |
| 2026-04-30 11:18 | 51.24625 | -0.13786 | 18397 ft | 357 kts | 324° |
| 2026-04-30 11:18 | 51.26655 | -0.16053 | 18215 ft | 354 kts | 324° |
| 2026-04-30 11:19 | 51.28670 | -0.18304 | 18035 ft | 352 kts | 324° |
| 2026-04-30 11:19 | 51.30667 | -0.20539 | 17884 ft | 349 kts | 324° |
| 2026-04-30 11:19 | 51.32650 | -0.22761 | 17730 ft | 347 kts | 324° |
| 2026-04-30 11:19 | 51.34620 | -0.24970 | 17589 ft | 345 kts | 324° |
| 2026-04-30 11:20 | 51.36580 | -0.27170 | 17436 ft | 343 kts | 324° |
| 2026-04-30 11:20 | 51.38526 | -0.29355 | 17285 ft | 341 kts | 325° |
| 2026-04-30 11:20 | 51.40465 | -0.31534 | 17134 ft | 341 kts | 326° |
| 2026-04-30 11:20 | 51.42586 | -0.33171 | 16952 ft | 338 kts | 349° |
| 2026-04-30 11:21 | 51.44898 | -0.33331 | 16850 ft | 331 kts | 12° |
| 2026-04-30 11:21 | 51.47064 | -0.32268 | 16708 ft | 324 kts | 28° |
| 2026-04-30 11:21 | 51.49103 | -0.30733 | 16569 ft | 325 kts | 30° |
| 2026-04-30 11:21 | 51.51137 | -0.29131 | 16416 ft | 326 kts | 30° |
| 2026-04-30 11:22 | 51.53171 | -0.27526 | 16270 ft | 327 kts | 30° |
| 2026-04-30 11:22 | 51.55215 | -0.25926 | 16114 ft | 327 kts | 30° |
| 2026-04-30 11:22 | 51.57267 | -0.24335 | 15969 ft | 327 kts | 30° |
| 2026-04-30 11:22 | 51.59312 | -0.22756 | 15902 ft | 325 kts | 30° |
| 2026-04-30 11:23 | 51.61347 | -0.21190 | 15784 ft | 324 kts | 30° |
| 2026-04-30 11:23 | 51.63375 | -0.19629 | 15634 ft | 322 kts | 30° |
| 2026-04-30 11:23 | 51.67369 | -0.16553 | 15351 ft | 319 kts | 30° |
| 2026-04-30 11:24 | 51.69386 | -0.14997 | 15230 ft | 316 kts | 30° |
| 2026-04-30 11:24 | 51.71365 | -0.13468 | 15123 ft | 314 kts | 30° |
| 2026-04-30 11:24 | 51.73307 | -0.11967 | 14995 ft | 312 kts | 30° |
| 2026-04-30 11:25 | 51.76717 | -0.07966 | 14767 ft | 300 kts | 51° |
| 2026-04-30 11:25 | 51.78143 | -0.05517 | 14646 ft | 299 kts | 51° |
| 2026-04-30 11:25 | 51.81006 | -0.00610 | 14403 ft | 301 kts | 51° |
| 2026-04-30 11:26 | 51.83890 | 0.04282 | 14163 ft | 300 kts | 50° |
| 2026-04-30 11:26 | 51.85334 | 0.06724 | 14029 ft | 300 kts | 50° |
| 2026-04-30 11:26 | 51.86776 | 0.09159 | 13910 ft | 300 kts | 50° |
| 2026-04-30 11:27 | 51.88222 | 0.11600 | 13798 ft | 300 kts | 50° |
| 2026-04-30 11:27 | 51.89663 | 0.14034 | 13680 ft | 299 kts | 50° |
| 2026-04-30 11:27 | 51.91102 | 0.16467 | 13567 ft | 299 kts | 50° |
| 2026-04-30 11:27 | 51.92672 | 0.18690 | 13433 ft | 305 kts | 33° |
| 2026-04-30 11:28 | 51.96561 | 0.21469 | 13240 ft | 306 kts | 27° |
| 2026-04-30 11:28 | 51.98519 | 0.22809 | 13117 ft | 306 kts | 27° |
| 2026-04-30 11:28 | 52.00475 | 0.24168 | 13005 ft | 305 kts | 27° |
| 2026-04-30 11:29 | 52.02419 | 0.25539 | 12899 ft | 305 kts | 27° |
| 2026-04-30 11:29 | 52.04366 | 0.26922 | 12779 ft | 305 kts | 28° |
| 2026-04-30 11:29 | 52.08286 | 0.29569 | 12541 ft | 308 kts | 17° |
| 2026-04-30 11:30 | 52.12408 | 0.27983 | 12315 ft | 319 kts | 320° |
| 2026-04-30 11:30 | 52.13861 | 0.25285 | 12231 ft | 318 kts | 305° |
| 2026-04-30 11:30 | 52.15123 | 0.22317 | 12110 ft | 319 kts | 303° |
| 2026-04-30 11:31 | 52.16355 | 0.19315 | 11973 ft | 319 kts | 303° |
| 2026-04-30 11:31 | 52.17590 | 0.16308 | 11869 ft | 320 kts | 303° |
| 2026-04-30 11:31 | 52.18837 | 0.13301 | 11730 ft | 320 kts | 303° |
| 2026-04-30 11:31 | 52.20091 | 0.10302 | 11622 ft | 320 kts | 303° |
| 2026-04-30 11:32 | 52.21348 | 0.07309 | 11512 ft | 320 kts | 303° |
| 2026-04-30 11:32 | 52.22309 | 0.04075 | 11360 ft | 316 kts | 280° |
| 2026-04-30 11:32 | 52.22393 | 0.00611 | 11258 ft | 300 kts | 255° |
| 2026-04-30 11:33 | 52.21236 | -0.05603 | 11171 ft | 275 kts | 246° |
| 2026-04-30 11:33 | 52.20631 | -0.08508 | 11166 ft | 269 kts | 246° |
| 2026-04-30 11:33 | 52.20012 | -0.11454 | 11177 ft | 283 kts | 246° |
| 2026-04-30 11:33 | 52.19350 | -0.14537 | 10927 ft | 290 kts | 246° |
| 2026-04-30 11:34 | 52.18694 | -0.17602 | 10834 ft | 282 kts | 246° |
| 2026-04-30 11:34 | 52.18063 | -0.20578 | 10764 ft | 273 kts | 246° |
| 2026-04-30 11:34 | 52.17455 | -0.23461 | 10653 ft | 267 kts | 246° |
| 2026-04-30 11:34 | 52.16858 | -0.26305 | 10517 ft | 265 kts | 245° |
| 2026-04-30 11:35 | 52.16261 | -0.29153 | 10338 ft | 267 kts | 246° |
| 2026-04-30 11:35 | 52.15658 | -0.32026 | 10126 ft | 269 kts | 246° |
| 2026-04-30 11:35 | 52.15055 | -0.34907 | 9885 ft | 267 kts | 246° |
| 2026-04-30 11:35 | 52.14459 | -0.37762 | 9661 ft | 266 kts | 245° |
| 2026-04-30 11:36 | 52.13864 | -0.40617 | 9425 ft | 266 kts | 246° |
| 2026-04-30 11:36 | 52.13245 | -0.43395 | 9177 ft | 261 kts | 237° |
| 2026-04-30 11:36 | 52.12162 | -0.45707 | 8951 ft | 250 kts | 220° |
| 2026-04-30 11:36 | 52.10984 | -0.47730 | 8728 ft | 249 kts | 220° |
| 2026-04-30 11:37 | 52.09800 | -0.49775 | 8495 ft | 248 kts | 220° |
| 2026-04-30 11:37 | 52.08617 | -0.51818 | 8274 ft | 248 kts | 220° |
| 2026-04-30 11:37 | 52.07437 | -0.53861 | 7987 ft | 249 kts | 220° |
| 2026-04-30 11:37 | 52.06244 | -0.55915 | 7674 ft | 251 kts | 220° |
| 2026-04-30 11:38 | 52.05041 | -0.57990 | 7360 ft | 254 kts | 220° |
| 2026-04-30 11:38 | 52.03827 | -0.60082 | 7052 ft | 255 kts | 221° |
| 2026-04-30 11:38 | 52.02601 | -0.62179 | 6756 ft | 257 kts | 220° |
| 2026-04-30 11:38 | 52.01361 | -0.64295 | 6430 ft | 259 kts | 220° |
| 2026-04-30 11:39 | 52.00121 | -0.66426 | 6095 ft | 260 kts | 220° |
| 2026-04-30 11:39 | 51.98882 | -0.68577 | 5769 ft | 261 kts | 220° |
| 2026-04-30 11:39 | 51.97637 | -0.70739 | 5454 ft | 263 kts | 220° |
| 2026-04-30 11:39 | 51.96373 | -0.72887 | 5130 ft | 261 kts | 214° |
| 2026-04-30 11:40 | 51.94844 | -0.74169 | 5010 ft | 238 kts | 185° |
| 2026-04-30 11:40 | 51.93254 | -0.74228 | 4997 ft | 222 kts | 172° |
| 2026-04-30 11:40 | 51.91750 | -0.74041 | 4987 ft | 214 kts | 171° |
| 2026-04-30 11:40 | 51.90268 | -0.73832 | 4998 ft | 214 kts | 171° |
| 2026-04-30 11:41 | 51.88792 | -0.73625 | 4992 ft | 212 kts | 171° |
| 2026-04-30 11:41 | 51.87323 | -0.73425 | 4981 ft | 211 kts | 171° |
| 2026-04-30 11:41 | 51.85846 | -0.73226 | 4791 ft | 214 kts | 171° |
| 2026-04-30 11:41 | 51.84379 | -0.73036 | 4508 ft | 208 kts | 169° |
| 2026-04-30 11:42 | 51.83079 | -0.72281 | 4221 ft | 197 kts | 135° |
| 2026-04-30 11:42 | 51.82532 | -0.70334 | 3974 ft | 198 kts | 96° |
| 2026-04-30 11:42 | 51.82595 | -0.68113 | 3767 ft | 196 kts | 91° |
| 2026-04-30 11:42 | 51.82743 | -0.65938 | 3521 ft | 193 kts | 86° |
| 2026-04-30 11:43 | 51.82943 | -0.63828 | 3293 ft | 188 kts | 85° |
| 2026-04-30 11:43 | 51.83215 | -0.61767 | 3076 ft | 186 kts | 81° |
| 2026-04-30 11:43 | 51.83534 | -0.59802 | 3001 ft | 174 kts | 81° |
| 2026-04-30 11:43 | 51.83849 | -0.57942 | 2954 ft | 175 kts | 82° |
| 2026-04-30 11:44 | 51.84172 | -0.56040 | 2768 ft | 175 kts | 82° |
| 2026-04-30 11:44 | 51.84492 | -0.54167 | 2534 ft | 169 kts | 80° |
| 2026-04-30 11:44 | 51.84799 | -0.52370 | 2336 ft | 162 kts | 79° |
| 2026-04-30 11:44 | 51.85091 | -0.50664 | 2096 ft | 153 kts | 79° |
| 2026-04-30 11:45 | 51.85359 | -0.49096 | 1900 ft | 138 kts | 79° |
| 2026-04-30 11:45 | 51.85601 | -0.47684 | 1737 ft | 128 kts | 78° |
| 2026-04-30 11:45 | 51.85839 | -0.46297 | 1542 ft | 126 kts | 81° |
| 2026-04-30 11:45 | 51.86072 | -0.44944 | 1390 ft | 125 kts | 80° |
| 2026-04-30 11:46 | 51.86297 | -0.43622 | 1212 ft | 118 kts | 79° |
| 2026-04-30 11:46 | 51.86518 | -0.42336 | 1011 ft | 123 kts | 76° |
| 2026-04-30 11:46 | 51.86751 | -0.40995 | 801 ft | 131 kts | 85° |
| 2026-04-30 11:46 | 51.86957 | -0.39594 | 728 ft | 129 kts | 75° |
| 2026-04-30 11:47 | 51.87237 | -0.38210 | 571 ft | 129 kts | 78° |
| 2026-04-30 11:47 | 51.87446 | -0.36937 | 538 ft | 98 kts | 75° |
| 2026-04-30 11:47 | 51.87576 | -0.36178 | 530 ft | 45 kts | 74° |
| 2026-04-30 11:47 | 51.87636 | -0.35923 | 521 ft | 14 kts | 41° |
| 2026-04-30 11:48 | 51.87716 | -0.35929 | 527 ft | 0 kts | 342° |
| 2026-04-30 11:49 | 51.87717 | -0.35930 | 527 ft | 2 kts | 342° |
| 2026-04-30 11:49 | 51.87755 | -0.35954 | 529 ft | 10 kts | 330° |
| 2026-04-30 11:49 | 51.87780 | -0.36091 | 531 ft | 17 kts | 259° |
| 2026-04-30 11:49 | 51.87747 | -0.36292 | 531 ft | 19 kts | 253° |
| 2026-04-30 11:50 | 51.87712 | -0.36491 | 531 ft | 18 kts | 255° |
| 2026-04-30 11:50 | 51.87680 | -0.36684 | 532 ft | 17 kts | 254° |
| 2026-04-30 11:50 | 51.87648 | -0.36869 | 533 ft | 17 kts | 255° |
| 2026-04-30 11:50 | 51.87617 | -0.37048 | 533 ft | 16 kts | 254° |
| 2026-04-30 11:51 | 51.87586 | -0.37220 | 533 ft | 16 kts | 255° |
| 2026-04-30 11:51 | 51.87589 | -0.37387 | 534 ft | 15 kts | 297° |
| 2026-04-30 11:51 | 51.87668 | -0.37492 | 533 ft | 16 kts | 325° |
| 2026-04-30 11:51 | 51.87723 | -0.37642 | 533 ft | 15 kts | 295° |
| 2026-04-30 11:52 | 51.87767 | -0.37796 | 533 ft | 15 kts | 295° |
| 2026-04-30 11:52 | 51.87814 | -0.37940 | 533 ft | 14 kts | 304° |
| 2026-04-30 11:52 | 51.87895 | -0.38015 | 533 ft | 14 kts | 350° |
| 2026-04-30 11:52 | 51.87925 | -0.38014 | 533 ft | 1 kts | 20° |
| 2026-04-30 11:53 | 51.87929 | -0.37994 | 533 ft | 3 kts | 83° |
| 2026-04-30 11:53 | 51.87928 | -0.37946 | 533 ft | 5 kts | 99° |
| 2026-04-30 11:53 | 51.87927 | -0.37938 | 533 ft | 1 kts | 98° |
| 2026-04-30 11:53 | 51.87926 | -0.37926 | 533 ft | 0 kts | 98° |